Terminal Aerodrome Forecast
Issued by NWS

Current Version | Previous Version | Graphics & Text | Print | Product List | Glossary On
Versions: 1 2 3 4 5 6 7 8 9 10 11 12 13 14 15 16 17 18 19 20
000
FTUS41 KPBZ 011100
TAFMGW
TAF
KMGW 011137Z 0112/0212 17004KT 3SM -SN BR OVC025
      TEMPO 0112/0113 1 1/2SM -SN
     FM011400 17006KT 6SM -SN OVC030
     FM012100 12005KT P6SM -SHRA OVC090
     FM020400 14008KT 2SM -RA BR OVC008
     FM020700 19008KT 1SM -RA BR OVC005=

USA.gov is the U.S. government's official web portal to all federal, state and local government web resources and services.